createdAt,value
2022-12-20T00:01:36.209Z,5.00
2022-12-20T00:04:08.419Z,5.43
2022-12-20T00:06:43.565Z,4.40
2022-12-20T00:09:14.884Z,6.53
2022-12-20T00:11:44.765Z,5.10
2022-12-20T00:14:11.917Z,5.57
2022-12-20T00:16:39.681Z,5.47
2022-12-20T00:19:07.879Z,5.10
2022-12-20T00:21:36.568Z,5.17
2022-12-20T00:24:05.272Z,5.88
2022-12-20T00:26:34.350Z,7.40
2022-12-20T00:29:02.592Z,5.45
2022-12-20T00:31:31.391Z,5.47
2022-12-20T00:34:00.387Z,5.93
2022-12-20T00:36:30.106Z,5.53
2022-12-20T00:38:59.320Z,5.88
2022-12-20T00:41:34.391Z,5.05
2022-12-20T00:44:03.246Z,5.35
2022-12-20T00:46:32.244Z,4.00
2022-12-20T00:48:59.533Z,5.10
2022-12-20T00:51:29.462Z,5.18
2022-12-20T00:53:57.025Z,5.25
2022-12-20T00:56:25.931Z,5.22
2022-12-20T00:58:58.476Z,4.23
2022-12-20T01:01:34.948Z,6.03
2022-12-20T01:04:03.267Z,4.35
2022-12-20T01:06:33.543Z,5.13
2022-12-20T01:09:03.727Z,6.07
2022-12-20T01:11:36.603Z,6.03
2022-12-20T01:14:15.669Z,5.80
2022-12-20T01:16:51.408Z,5.93
2022-12-20T01:19:21.024Z,5.32
2022-12-20T01:21:48.392Z,5.10
2022-12-20T01:24:18.633Z,8.17
2022-12-20T01:26:46.943Z,5.03
2022-12-20T01:29:17.046Z,8.77
2022-12-20T01:31:45.419Z,5.72
2022-12-20T01:34:12.992Z,4.65
2022-12-20T01:36:40.422Z,6.53
2022-12-20T01:39:16.835Z,5.20
2022-12-20T01:41:46.302Z,5.15
2022-12-20T01:44:19.506Z,6.32
2022-12-20T01:46:49.502Z,6.82
2022-12-20T01:49:36.851Z,6.87
2022-12-20T01:52:29.979Z,8.13
2022-12-20T01:55:18.779Z,6.32
2022-12-20T01:57:52.773Z,4.88
2022-12-20T02:00:21.506Z,4.93
2022-12-20T02:02:50.524Z,5.23
2022-12-20T02:05:22.070Z,4.38
2022-12-20T02:07:52.405Z,6.55
2022-12-20T02:10:24.103Z,5.47
2022-12-20T02:13:08.003Z,6.93
2022-12-20T02:15:56.134Z,6.73
2022-12-20T02:18:30.371Z,6.78
2022-12-20T02:21:06.246Z,4.90
2022-12-20T02:24:09.283Z,5.93
2022-12-20T02:26:58.504Z,6.18
2022-12-20T02:29:31.521Z,4.50
2022-12-20T02:32:06.633Z,5.93
2022-12-20T02:34:36.714Z,5.22
2022-12-20T02:37:04.797Z,5.55
2022-12-20T02:39:34.127Z,5.22
2022-12-20T02:42:12.531Z,5.33
2022-12-20T02:45:08.958Z,4.72
2022-12-20T02:48:00.251Z,5.90
2022-12-20T02:50:38.731Z,5.90
2022-12-20T02:53:08.373Z,16.88
2022-12-20T02:56:00.897Z,5.60
2022-12-20T02:58:39.268Z,6.45
2022-12-20T03:01:17.290Z,4.95
2022-12-20T03:03:44.618Z,4.70
2022-12-20T03:06:11.724Z,5.88
2022-12-20T03:08:38.810Z,5.43
2022-12-20T03:11:06.044Z,4.97
2022-12-20T03:13:33.338Z,4.20
2022-12-20T03:16:05.232Z,5.70
2022-12-20T03:18:32.648Z,6.68
2022-12-20T03:20:59.811Z,6.20
2022-12-20T03:23:26.995Z,4.70
2022-12-20T03:25:54.310Z,5.25
2022-12-20T03:28:30.094Z,4.45
2022-12-20T03:30:58.029Z,5.03
2022-12-20T03:33:25.523Z,5.43
2022-12-20T03:35:52.683Z,5.13
2022-12-20T03:38:19.798Z,5.60
2022-12-20T03:40:46.941Z,5.13
2022-12-20T03:43:18.333Z,6.18
2022-12-20T03:45:45.545Z,4.83
2022-12-20T03:48:12.901Z,7.60
2022-12-20T03:50:39.956Z,5.32
2022-12-20T03:53:08.613Z,5.75
2022-12-20T03:55:36.217Z,5.72
2022-12-20T03:58:04.666Z,4.03
2022-12-20T04:00:35.070Z,4.68
2022-12-20T04:03:28.387Z,5.78
2022-12-20T04:05:55.968Z,7.45
2022-12-20T04:08:23.248Z,5.90
2022-12-20T04:11:10.333Z,7.00
2022-12-20T04:13:38.843Z,5.85
2022-12-20T04:16:08.388Z,4.80
2022-12-20T04:18:35.600Z,6.65
2022-12-20T04:21:07.113Z,4.60
2022-12-20T04:23:36.586Z,6.00
2022-12-20T04:26:06.807Z,5.50
2022-12-20T04:28:35.179Z,5.43
2022-12-20T04:31:03.230Z,5.53
2022-12-20T04:33:34.653Z,5.88
2022-12-20T04:36:01.833Z,3.70
2022-12-20T04:38:29.678Z,4.78
2022-12-20T04:40:57.840Z,8.02
2022-12-20T04:43:27.080Z,6.10
2022-12-20T04:45:57.954Z,6.65
2022-12-20T04:51:17.172Z,4.22
2022-12-20T04:53:48.318Z,5.00
2022-12-20T04:56:29.049Z,4.97
2022-12-20T04:59:02.612Z,3.55
2022-12-20T05:01:30.358Z,4.50
2022-12-20T05:03:57.791Z,6.75
2022-12-20T05:06:29.664Z,3.40
2022-12-20T05:08:56.986Z,4.65
2022-12-20T05:11:25.106Z,4.03
2022-12-20T05:13:52.428Z,7.17
2022-12-20T05:16:21.379Z,5.28
2022-12-20T05:18:49.877Z,3.95
2022-12-20T05:21:37.796Z,4.20
2022-12-20T05:24:25.180Z,4.60
2022-12-20T05:27:12.514Z,4.43
2022-12-20T05:29:39.682Z,5.50
2022-12-20T05:32:06.837Z,5.55
2022-12-20T05:34:38.110Z,4.10
2022-12-20T05:37:05.298Z,3.85
2022-12-20T05:39:34.601Z,3.73
2022-12-20T05:42:06.547Z,4.82
2022-12-20T05:44:34.928Z,4.72
2022-12-20T05:47:02.238Z,3.72
2022-12-20T05:49:31.563Z,5.07
2022-12-20T05:52:03.104Z,3.93
2022-12-20T05:54:30.424Z,6.05
2022-12-20T05:57:18.505Z,4.53
2022-12-20T05:59:47.328Z,6.70
2022-12-20T06:02:17.197Z,3.65
2022-12-20T06:04:46.072Z,4.80
2022-12-20T06:07:19.768Z,4.75
2022-12-20T06:09:49.857Z,6.25
2022-12-20T06:12:19.101Z,4.07
2022-12-20T06:14:47.404Z,3.70
2022-12-20T06:17:14.812Z,4.37
2022-12-20T06:19:42.023Z,4.18
2022-12-20T06:22:11.777Z,7.22
2022-12-20T06:24:48.650Z,4.25
2022-12-20T06:27:18.983Z,3.28
2022-12-20T06:29:54.613Z,3.93
2022-12-20T06:32:25.702Z,2.80
2022-12-20T06:34:54.726Z,4.13
2022-12-20T06:37:21.927Z,4.03
2022-12-20T06:39:49.668Z,4.05
2022-12-20T06:42:16.935Z,2.90
2022-12-20T06:44:47.478Z,3.72
2022-12-20T06:47:15.823Z,3.28
2022-12-20T06:49:43.022Z,3.50
2022-12-20T06:52:18.272Z,3.08
2022-12-20T06:54:48.488Z,5.37
2022-12-20T06:57:16.632Z,4.97
2022-12-20T06:59:47.082Z,5.28
2022-12-20T07:02:15.278Z,4.03
2022-12-20T07:04:44.242Z,3.25
2022-12-20T07:07:13.419Z,5.63
2022-12-20T07:09:41.628Z,3.88
2022-12-20T07:12:14.621Z,4.07
2022-12-20T07:14:41.931Z,7.38
2022-12-20T07:17:09.592Z,4.32
2022-12-20T07:19:47.060Z,5.07
2022-12-20T07:22:17.800Z,6.72
2022-12-20T07:24:45.998Z,5.18
2022-12-20T07:27:13.730Z,7.72
2022-12-20T07:29:42.081Z,4.07
2022-12-20T07:32:09.867Z,5.40
2022-12-20T07:34:37.704Z,4.75
2022-12-20T07:37:04.926Z,3.85
2022-12-20T07:39:32.091Z,5.10
2022-12-20T07:41:59.459Z,5.57
2022-12-20T07:44:26.537Z,7.13
2022-12-20T07:46:53.586Z,4.70
2022-12-20T07:49:20.789Z,4.78
2022-12-20T07:51:56.467Z,6.07
2022-12-20T07:54:39.913Z,4.20
2022-12-20T07:57:14.309Z,6.80
2022-12-20T07:59:48.735Z,4.93
2022-12-20T08:02:24.059Z,7.05
2022-12-20T08:04:51.426Z,4.47
2022-12-20T08:07:18.733Z,4.82
2022-12-20T08:09:46.373Z,5.27
2022-12-20T08:12:17.224Z,5.25
2022-12-20T08:14:45.316Z,3.83
2022-12-20T08:17:12.372Z,4.97
2022-12-20T08:19:39.497Z,5.00
2022-12-20T08:22:06.637Z,4.67
2022-12-20T08:24:34.900Z,6.05
2022-12-20T08:27:02.016Z,7.20
2022-12-20T08:29:29.153Z,4.65
2022-12-20T08:31:56.229Z,4.05
2022-12-20T08:34:23.412Z,4.37
2022-12-20T08:36:50.528Z,5.15
2022-12-20T08:39:17.681Z,11.02
2022-12-20T08:41:44.834Z,6.03
2022-12-20T08:44:11.992Z,3.67
2022-12-20T08:46:39.223Z,7.17
2022-12-20T08:49:07.043Z,5.65
2022-12-20T08:51:34.454Z,6.28
2022-12-20T08:54:02.747Z,5.82
2022-12-20T08:56:29.938Z,5.75
2022-12-20T08:58:57.583Z,6.03
2022-12-20T09:01:26.957Z,5.53
2022-12-20T09:03:54.370Z,6.88
2022-12-20T09:06:22.973Z,7.63
2022-12-20T09:08:51.207Z,5.80
2022-12-20T09:11:23.449Z,7.70
2022-12-20T09:13:55.673Z,4.32
2022-12-20T09:16:27.555Z,6.90
2022-12-20T09:19:04.384Z,6.10
2022-12-20T09:21:32.931Z,5.55
2022-12-20T09:24:00.223Z,4.43
2022-12-20T09:26:27.439Z,5.10
2022-12-20T09:28:54.688Z,6.00
2022-12-20T09:31:25.266Z,7.03
2022-12-20T09:34:00.086Z,6.47
2022-12-20T09:36:29.576Z,8.43
2022-12-20T09:38:57.543Z,4.10
2022-12-20T09:41:43.231Z,7.57
2022-12-20T09:44:36.366Z,6.13
2022-12-20T09:47:16.368Z,5.10
2022-12-20T09:49:48.286Z,6.93
2022-12-20T09:52:34.888Z,5.22
2022-12-20T09:55:23.250Z,4.85
2022-12-20T09:58:08.443Z,5.53
2022-12-20T10:00:41.205Z,6.35
2022-12-20T10:03:21.255Z,5.67
2022-12-20T10:05:52.271Z,5.78
2022-12-20T10:08:58.611Z,7.35
2022-12-20T10:11:50.457Z,5.57
2022-12-20T10:14:27.158Z,6.82
2022-12-20T10:17:34.078Z,6.73
2022-12-20T10:20:38.007Z,5.38
2022-12-20T10:23:11.841Z,9.02
2022-12-20T10:25:40.644Z,5.90
2022-12-20T10:28:30.479Z,7.38
2022-12-20T10:31:16.899Z,6.47
2022-12-20T10:33:45.323Z,7.07
2022-12-20T10:36:34.502Z,6.20
2022-12-20T10:39:08.805Z,7.47
2022-12-20T10:41:44.750Z,7.40
2022-12-20T10:44:15.595Z,6.57
2022-12-20T10:46:51.518Z,6.32
2022-12-20T10:49:34.726Z,6.60
2022-12-20T10:52:13.273Z,6.18
2022-12-20T10:54:44.027Z,6.32
2022-12-20T10:57:21.146Z,7.03
2022-12-20T11:00:02.070Z,5.43
2022-12-20T11:02:42.464Z,4.60
2022-12-20T11:05:12.778Z,5.15
2022-12-20T11:08:39.353Z,5.05
2022-12-20T11:11:22.979Z,5.57
2022-12-20T11:13:52.218Z,7.07
2022-12-20T11:16:27.335Z,9.52
2022-12-20T11:19:23.655Z,5.07
2022-12-20T11:22:06.362Z,12.40
2022-12-20T11:24:49.357Z,7.50
2022-12-20T11:27:32.446Z,6.07
2022-12-20T11:30:05.396Z,5.75
2022-12-20T11:33:01.489Z,5.70
2022-12-20T11:35:58.483Z,6.75
2022-12-20T11:39:27.220Z,5.10
2022-12-20T11:42:40.148Z,6.72
2022-12-20T11:45:15.971Z,5.22
2022-12-20T11:48:04.999Z,5.25
2022-12-20T11:51:15.161Z,4.82
2022-12-20T11:54:01.800Z,6.37
2022-12-20T11:56:44.214Z,5.50
2022-12-20T11:59:48.213Z,6.78
2022-12-20T12:02:36.014Z,6.00
2022-12-20T12:05:20.351Z,7.40
2022-12-20T12:07:56.175Z,7.50
2022-12-20T12:10:34.461Z,6.13
2022-12-20T12:13:25.822Z,6.28
2022-12-20T12:16:22.992Z,6.30
2022-12-20T12:18:50.972Z,5.32
2022-12-20T12:21:28.692Z,4.33
2022-12-20T12:24:10.952Z,7.38
2022-12-20T12:26:41.130Z,6.43
2022-12-20T12:29:17.811Z,8.90
2022-12-20T12:32:17.879Z,5.57
2022-12-20T12:35:03.844Z,7.67
2022-12-20T12:37:55.042Z,8.40
2022-12-20T12:40:52.716Z,8.18
2022-12-20T12:43:43.534Z,7.45
2022-12-20T12:46:39.342Z,5.75
2022-12-20T12:49:22.974Z,8.47
2022-12-20T12:51:56.722Z,5.70
2022-12-20T12:54:38.302Z,6.07
2022-12-20T12:57:14.871Z,8.90
2022-12-20T12:59:48.143Z,10.55
2022-12-20T13:02:15.875Z,9.57
2022-12-20T13:05:12.732Z,8.68
2022-12-20T13:07:40.245Z,7.82
2022-12-20T13:10:31.399Z,7.57
2022-12-20T13:13:02.744Z,8.20
2022-12-20T13:15:32.688Z,6.70
2022-12-20T13:18:23.144Z,6.93
2022-12-20T13:21:30.895Z,6.82
2022-12-20T13:24:49.194Z,4.43
2022-12-20T13:27:40.722Z,5.95
2022-12-20T13:30:07.816Z,8.17
2022-12-20T13:32:47.209Z,7.78
2022-12-20T13:35:29.192Z,6.47
2022-12-20T13:38:42.393Z,6.25
2022-12-20T13:41:34.863Z,8.23
2022-12-20T13:44:36.735Z,6.47
2022-12-20T13:47:38.258Z,6.60
2022-12-20T13:50:24.685Z,9.48
2022-12-20T13:52:54.727Z,6.53
2022-12-20T13:55:32.992Z,8.02
2022-12-20T13:58:13.526Z,7.27
2022-12-20T14:00:41.358Z,7.00
2022-12-20T14:03:28.479Z,6.70
2022-12-20T14:06:04.783Z,6.15
2022-12-20T14:08:43.528Z,7.60
2022-12-20T14:11:28.912Z,7.87
2022-12-20T14:14:05.211Z,6.45
2022-12-20T14:16:33.698Z,6.20
2022-12-20T14:19:06.085Z,7.22
2022-12-20T14:21:42.959Z,8.23
2022-12-20T14:24:18.805Z,8.60
2022-12-20T14:26:48.182Z,7.07
2022-12-20T14:29:28.549Z,8.45
2022-12-20T14:31:55.699Z,5.90
2022-12-20T14:34:38.072Z,9.60
2022-12-20T14:37:30.484Z,7.00
2022-12-20T14:40:19.464Z,8.93
2022-12-20T14:42:47.242Z,7.07
2022-12-20T14:45:14.394Z,7.32
2022-12-20T14:48:09.431Z,9.40
2022-12-20T14:50:40.778Z,7.30
2022-12-20T14:53:25.332Z,8.00
2022-12-20T14:55:52.728Z,7.20
2022-12-20T14:58:33.374Z,9.15
2022-12-20T15:01:15.864Z,6.40
2022-12-20T15:03:57.838Z,5.50
2022-12-20T15:06:42.323Z,7.20
2022-12-20T15:09:09.659Z,9.82
2022-12-20T15:11:38.437Z,6.05
2022-12-20T15:14:29.715Z,10.18
2022-12-20T15:16:56.807Z,8.00
2022-12-20T15:19:23.994Z,9.25
2022-12-20T15:21:51.521Z,10.32
2022-12-20T15:24:29.485Z,10.15
2022-12-20T15:26:57.018Z,8.07
2022-12-20T15:29:28.945Z,6.80
2022-12-20T15:32:29.867Z,7.25
2022-12-20T15:34:57.255Z,8.25
2022-12-20T15:37:24.332Z,7.45
2022-12-20T15:39:51.487Z,8.45
2022-12-20T15:42:21.110Z,6.60
2022-12-20T15:44:48.384Z,8.18
2022-12-20T15:47:17.117Z,7.57
2022-12-20T15:49:49.823Z,7.97
2022-12-20T15:52:23.631Z,9.32
2022-12-20T15:54:51.181Z,8.40
2022-12-20T15:57:18.662Z,8.20
2022-12-20T15:59:59.652Z,10.23
2022-12-20T16:02:31.154Z,7.10
2022-12-20T16:04:59.226Z,8.27
2022-12-20T16:07:26.602Z,7.23
2022-12-20T16:09:54.242Z,8.70
2022-12-20T16:12:32.756Z,9.70
2022-12-20T16:14:59.928Z,8.68
2022-12-20T16:17:27.280Z,9.13
2022-12-20T16:19:55.573Z,7.90
2022-12-20T16:22:24.087Z,10.65
2022-12-20T16:24:51.915Z,8.15
2022-12-20T16:27:20.404Z,10.80
2022-12-20T16:29:47.857Z,7.22
2022-12-20T16:32:17.468Z,9.50
2022-12-20T16:34:45.875Z,9.73
2022-12-20T16:37:13.432Z,8.35
2022-12-20T16:39:41.868Z,9.75
2022-12-20T16:42:23.264Z,7.45
2022-12-20T16:44:54.736Z,10.50
2022-12-20T16:47:22.509Z,10.20
2022-12-20T16:49:53.333Z,9.98
2022-12-20T16:52:22.963Z,9.07
2022-12-20T16:54:50.900Z,8.63
2022-12-20T16:57:19.147Z,9.63
2022-12-20T16:59:46.270Z,8.98
2022-12-20T17:02:33.543Z,7.72
2022-12-20T17:05:02.120Z,9.18
2022-12-20T17:07:29.332Z,8.57
2022-12-20T17:09:56.546Z,9.83
2022-12-20T17:12:23.753Z,8.20
2022-12-20T17:14:50.869Z,10.00
2022-12-20T17:17:17.939Z,7.07
2022-12-20T17:19:45.209Z,8.73
2022-12-20T17:22:25.266Z,7.03
2022-12-20T17:24:52.727Z,7.32
2022-12-20T17:27:19.966Z,8.60
2022-12-20T17:29:47.136Z,8.02
2022-12-20T17:32:24.492Z,9.70
2022-12-20T17:34:52.980Z,8.27
2022-12-20T17:37:21.092Z,7.07
2022-12-20T17:39:48.729Z,8.07
2022-12-20T17:42:16.929Z,8.32
2022-12-20T17:44:46.220Z,7.65
2022-12-20T17:47:13.808Z,7.60
2022-12-20T17:49:40.971Z,8.82
2022-12-20T17:52:15.799Z,9.70
2022-12-20T17:54:43.162Z,12.00
2022-12-20T17:57:15.470Z,11.82
2022-12-20T17:59:42.979Z,9.60
2022-12-20T18:02:25.561Z,9.20
2022-12-20T18:04:53.245Z,8.68
2022-12-20T18:07:20.623Z,8.85
2022-12-20T18:09:49.161Z,10.18
2022-12-20T18:12:17.665Z,11.00
2022-12-20T18:14:45.215Z,9.38
2022-12-20T18:17:12.621Z,10.43
2022-12-20T18:19:40.883Z,8.73
2022-12-20T18:22:08.083Z,8.02
2022-12-20T18:24:35.273Z,10.80
2022-12-20T18:27:02.477Z,11.10
2022-12-20T18:29:29.768Z,9.93
2022-12-20T18:31:57.223Z,10.07
2022-12-20T18:34:24.421Z,9.05
2022-12-20T18:36:51.599Z,9.73
2022-12-20T18:39:19.574Z,8.23
2022-12-20T18:41:48.324Z,12.05
2022-12-20T18:44:15.550Z,10.75
2022-12-20T18:46:45.091Z,9.70
2022-12-20T18:49:12.407Z,11.33
2022-12-20T18:51:53.951Z,12.98
2022-12-20T18:54:37.532Z,11.50
2022-12-20T18:57:22.524Z,10.82
2022-12-20T19:00:07.259Z,8.40
2022-12-20T19:02:51.438Z,11.83
2022-12-20T19:05:19.017Z,12.55
2022-12-20T19:07:46.193Z,9.70
2022-12-20T19:10:13.410Z,10.38
2022-12-20T19:12:44.047Z,10.82
2022-12-20T19:15:11.376Z,10.53
2022-12-20T19:17:38.501Z,10.25
2022-12-20T19:20:07.186Z,12.35
2022-12-20T19:22:34.662Z,9.43
2022-12-20T19:25:01.702Z,10.63
2022-12-20T19:27:28.777Z,11.87
2022-12-20T19:29:55.909Z,12.15
2022-12-20T19:32:23.022Z,12.95
2022-12-20T19:34:50.440Z,11.10
2022-12-20T19:37:18.252Z,10.05
2022-12-20T19:39:45.362Z,9.13
2022-12-20T19:42:23.997Z,9.40
2022-12-20T19:44:51.885Z,9.50
2022-12-20T19:47:18.978Z,12.18
2022-12-20T19:49:46.157Z,8.68
2022-12-20T19:52:28.762Z,9.37
2022-12-20T19:54:56.311Z,10.00
2022-12-20T19:57:23.609Z,10.90
2022-12-20T19:59:55.524Z,9.90
2022-12-20T20:02:23.435Z,9.27
2022-12-20T20:04:50.950Z,9.57
2022-12-20T20:07:18.136Z,14.27
2022-12-20T20:09:45.339Z,10.25
2022-12-20T20:12:13.447Z,10.77
2022-12-20T20:14:40.624Z,39.95
2022-12-20T20:17:07.797Z,38.63
2022-12-20T20:19:35.446Z,23.13
2022-12-20T20:22:03.052Z,15.15
2022-12-20T20:24:30.528Z,14.65
2022-12-20T20:26:57.710Z,13.20
2022-12-20T20:29:31.088Z,27.63
2022-12-20T20:32:01.300Z,18.40
2022-12-20T20:34:36.888Z,13.65
2022-12-20T20:37:09.763Z,10.60
2022-12-20T20:39:37.271Z,13.90
2022-12-20T20:42:05.097Z,21.83
2022-12-20T20:44:33.210Z,15.20
2022-12-20T20:47:02.627Z,12.63
2022-12-20T20:49:30.664Z,10.63
2022-12-20T20:51:58.091Z,11.73
2022-12-20T20:54:25.210Z,9.60
2022-12-20T20:56:52.646Z,11.65
2022-12-20T20:59:21.718Z,9.40
2022-12-20T21:01:49.434Z,12.30
2022-12-20T21:04:16.991Z,10.48
2022-12-20T21:06:46.562Z,9.70
2022-12-20T21:09:13.838Z,10.35
2022-12-20T21:11:41.674Z,10.80
2022-12-20T21:14:13.139Z,9.35
2022-12-20T21:16:41.654Z,10.40
2022-12-20T21:19:11.476Z,10.97
2022-12-20T21:21:38.719Z,12.75
2022-12-20T21:24:06.269Z,10.32
2022-12-20T21:26:33.544Z,10.55
2022-12-20T21:29:01.206Z,11.43
2022-12-20T21:31:28.968Z,10.93
2022-12-20T21:33:59.721Z,10.25
2022-12-20T21:36:31.680Z,10.57
2022-12-20T21:39:01.326Z,11.32
2022-12-20T21:41:39.265Z,11.95
2022-12-20T21:44:15.214Z,11.70
2022-12-20T21:46:50.280Z,13.35
2022-12-20T21:49:17.874Z,13.27
2022-12-20T21:51:50.500Z,15.80
2022-12-20T21:54:21.648Z,14.40
2022-12-20T21:56:56.880Z,15.33
2022-12-20T21:59:27.611Z,14.00
2022-12-20T22:02:02.733Z,15.68
2022-12-20T22:04:33.399Z,14.60
2022-12-20T22:07:06.392Z,14.90
2022-12-20T22:09:34.041Z,15.87
2022-12-20T22:12:03.011Z,16.08
2022-12-20T22:14:30.517Z,16.55
2022-12-20T22:16:57.806Z,15.88
2022-12-20T22:19:29.652Z,14.23
2022-12-20T22:22:01.975Z,17.63
2022-12-20T22:24:29.421Z,17.33
2022-12-20T22:26:56.881Z,21.17
2022-12-20T22:29:24.515Z,18.02
2022-12-20T22:31:55.172Z,18.83
2022-12-20T22:34:25.283Z,19.90
2022-12-20T22:37:01.159Z,20.90
2022-12-20T22:39:31.249Z,20.77
2022-12-20T22:41:58.660Z,18.63
2022-12-20T22:44:30.397Z,20.02
2022-12-20T22:46:57.635Z,24.67
2022-12-20T22:49:25.031Z,21.52
2022-12-20T22:52:06.349Z,22.45
2022-12-20T22:54:35.570Z,26.55
2022-12-20T22:57:05.235Z,23.95
2022-12-20T22:59:34.663Z,24.70
2022-12-20T23:02:02.132Z,24.40
2022-12-20T23:04:29.605Z,24.02
2022-12-20T23:06:58.813Z,27.75
2022-12-20T23:09:28.480Z,26.55
2022-12-20T23:12:14.579Z,26.43
2022-12-20T23:15:04.205Z,26.13
2022-12-20T23:17:33.303Z,28.92
2022-12-20T23:20:22.661Z,29.20
2022-12-20T23:22:50.026Z,29.40
2022-12-20T23:25:21.277Z,24.80
2022-12-20T23:27:53.546Z,26.20
2022-12-20T23:30:26.668Z,32.25
2022-12-20T23:32:56.300Z,28.30
2022-12-20T23:35:24.845Z,28.85
2022-12-20T23:37:52.649Z,26.37
2022-12-20T23:40:22.122Z,26.38
2022-12-20T23:42:49.346Z,27.85
2022-12-20T23:45:18.011Z,27.08
2022-12-20T23:47:45.307Z,27.02
2022-12-20T23:50:24.041Z,28.17
2022-12-20T23:52:55.543Z,27.98
2022-12-20T23:55:25.234Z,30.35
2022-12-20T23:57:53.505Z,28.50
